In Rescue
 
Open Full Screen Window  High Contrast Mode
Wind Gusting 00 knots
08
June 22, 2024 8:33 PM CDT
Weather Information
Wind Direction
  340 °
Wind Speed
  08 kt (9 mph)
Wind Gust
  00 kt (0 mph)
Altimeter
29.78 in
Visibility
10 SM
Temperature
19° C
66° F
Dewpoint
18° C
64° F
Humidity
94%
Sky Condition
Overcast @ 900 ft
IFR

METAR KSGS 230133Z AUTO 34008KT 10SM OVC009 19/18 A2978 RMK AO2 T01900175

FAA Disclaimer: The data displayed is for advisory purposes only and is not to be used for flight planning or operations.